Ouloup Ile Ouvea, New Caledonia
Current Conditions -  °F | °C
As of 4:00 AM on Sunday 21 Dec 2014 (Local Time) from NWWW Reporting Station
Clear Clear  
Wind Chill: 73°   Ceiling: Unl
Heat Index: 73°   Visibility: 6mi
Dew Point: 72°   Wind: 2mph
Humidity: 94%   Direction: NA
Pressure: 29.77"   Gusts: NA
Location:  20.65°S, 166.58°E
Report Text: NWWW 201700Z AUTO VRB02KT 9999 NSC 23/22 Q1008
Loading
Personal Weather Stations






























Interactive Weather Map New forecast layout! Learn more

10-Day Weather Forecast

Advertisements
Track Severe Weather on mobile